sensor_id;sensor_type;location;lat;lon;timestamp;P1;durP1;ratioP1;P2;durP2;ratioP2
57826;SDS011;43656;57.746;11.780;2022-08-25T00:03:39;3.17;;;2.30;;
57826;SDS011;43656;57.746;11.780;2022-08-25T00:06:06;3.97;;;2.10;;
57826;SDS011;43656;57.746;11.780;2022-08-25T00:08:33;4.35;;;2.13;;
57826;SDS011;43656;57.746;11.780;2022-08-25T00:11:02;4.53;;;2.35;;
57826;SDS011;43656;57.746;11.780;2022-08-25T00:13:32;5.68;;;2.00;;
57826;SDS011;43656;57.746;11.780;2022-08-25T00:15:58;8.63;;;2.40;;
57826;SDS011;43656;57.746;11.780;2022-08-25T00:18:24;4.47;;;2.00;;
57826;SDS011;43656;57.746;11.780;2022-08-25T00:20:50;4.32;;;1.83;;
57826;SDS011;43656;57.746;11.780;2022-08-25T00:23:16;8.80;;;2.17;;
57826;SDS011;43656;57.746;11.780;2022-08-25T00:25:43;4.20;;;2.10;;
57826;SDS011;43656;57.746;11.780;2022-08-25T00:28:09;3.80;;;1.92;;
57826;SDS011;43656;57.746;11.780;2022-08-25T00:30:35;4.68;;;1.90;;
57826;SDS011;43656;57.746;11.780;2022-08-25T00:35:36;4.40;;;2.10;;
57826;SDS011;43656;57.746;11.780;2022-08-25T00:38:04;4.38;;;2.08;;
57826;SDS011;43656;57.746;11.780;2022-08-25T00:40:29;3.85;;;2.10;;
57826;SDS011;43656;57.746;11.780;2022-08-25T00:42:55;6.47;;;2.03;;
57826;SDS011;43656;57.746;11.780;2022-08-25T00:45:21;3.20;;;1.80;;
57826;SDS011;43656;57.746;11.780;2022-08-25T00:47:47;3.90;;;2.13;;
57826;SDS011;43656;57.746;11.780;2022-08-25T00:50:13;3.60;;;1.80;;
57826;SDS011;43656;57.746;11.780;2022-08-25T00:52:44;4.68;;;2.00;;
57826;SDS011;43656;57.746;11.780;2022-08-25T00:55:17;7.13;;;2.00;;
57826;SDS011;43656;57.746;11.780;2022-08-25T00:57:55;3.75;;;1.95;;
57826;SDS011;43656;57.746;11.780;2022-08-25T01:00:36;3.35;;;2.00;;
57826;SDS011;43656;57.746;11.780;2022-08-25T01:03:04;4.07;;;2.10;;
57826;SDS011;43656;57.746;11.780;2022-08-25T01:05:30;4.22;;;2.13;;
57826;SDS011;43656;57.746;11.780;2022-08-25T01:07:57;4.00;;;2.40;;
57826;SDS011;43656;57.746;11.780;2022-08-25T01:10:26;4.38;;;2.17;;
57826;SDS011;43656;57.746;11.780;2022-08-25T01:12:53;2.90;;;2.10;;
57826;SDS011;43656;57.746;11.780;2022-08-25T01:15:23;4.05;;;2.00;;
57826;SDS011;43656;57.746;11.780;2022-08-25T01:17:51;7.05;;;2.30;;
57826;SDS011;43656;57.746;11.780;2022-08-25T01:20:21;2.42;;;1.73;;
57826;SDS011;43656;57.746;11.780;2022-08-25T01:22:49;7.78;;;2.22;;
57826;SDS011;43656;57.746;11.780;2022-08-25T01:27:59;4.25;;;1.95;;
57826;SDS011;43656;57.746;11.780;2022-08-25T01:30:25;4.28;;;2.10;;
57826;SDS011;43656;57.746;11.780;2022-08-25T01:32:53;4.18;;;1.90;;
57826;SDS011;43656;57.746;11.780;2022-08-25T01:35:18;3.85;;;1.75;;
57826;SDS011;43656;57.746;11.780;2022-08-25T01:37:44;3.70;;;1.88;;
57826;SDS011;43656;57.746;11.780;2022-08-25T01:40:10;3.53;;;2.30;;
57826;SDS011;43656;57.746;11.780;2022-08-25T01:45:12;4.05;;;1.95;;
57826;SDS011;43656;57.746;11.780;2022-08-25T01:47:38;5.72;;;2.17;;
57826;SDS011;43656;57.746;11.780;2022-08-25T01:50:05;3.83;;;2.30;;
57826;SDS011;43656;57.746;11.780;2022-08-25T01:52:32;5.15;;;2.03;;
57826;SDS011;43656;57.746;11.780;2022-08-25T01:55:02;3.10;;;2.05;;
57826;SDS011;43656;57.746;11.780;2022-08-25T01:57:29;4.97;;;2.00;;
57826;SDS011;43656;57.746;11.780;2022-08-25T01:59:56;6.82;;;2.00;;
57826;SDS011;43656;57.746;11.780;2022-08-25T02:02:22;2.97;;;1.65;;
57826;SDS011;43656;57.746;11.780;2022-08-25T02:04:48;4.82;;;1.80;;
57826;SDS011;43656;57.746;11.780;2022-08-25T02:07:13;3.28;;;2.30;;
57826;SDS011;43656;57.746;11.780;2022-08-25T02:09:40;4.20;;;1.85;;
57826;SDS011;43656;57.746;11.780;2022-08-25T02:12:06;4.70;;;2.00;;
57826;SDS011;43656;57.746;11.780;2022-08-25T02:14:33;2.55;;;1.90;;
57826;SDS011;43656;57.746;11.780;2022-08-25T02:17:00;4.32;;;2.13;;
57826;SDS011;43656;57.746;11.780;2022-08-25T02:19:27;5.05;;;2.30;;
57826;SDS011;43656;57.746;11.780;2022-08-25T02:21:55;4.70;;;2.25;;
57826;SDS011;43656;57.746;11.780;2022-08-25T02:24:21;4.00;;;2.50;;
57826;SDS011;43656;57.746;11.780;2022-08-25T02:26:47;3.40;;;2.20;;
57826;SDS011;43656;57.746;11.780;2022-08-25T02:29:13;4.53;;;2.20;;
57826;SDS011;43656;57.746;11.780;2022-08-25T02:36:51;4.07;;;2.13;;
57826;SDS011;43656;57.746;11.780;2022-08-25T02:39:16;5.65;;;2.20;;
57826;SDS011;43656;57.746;11.780;2022-08-25T02:41:42;4.40;;;2.20;;
57826;SDS011;43656;57.746;11.780;2022-08-25T02:44:08;2.35;;;2.00;;
57826;SDS011;43656;57.746;11.780;2022-08-25T02:46:34;3.95;;;2.20;;
57826;SDS011;43656;57.746;11.780;2022-08-25T02:49:01;3.83;;;2.40;;
57826;SDS011;43656;57.746;11.780;2022-08-25T02:54:06;4.57;;;2.20;;
57826;SDS011;43656;57.746;11.780;2022-08-25T03:01:42;5.82;;;2.10;;
57826;SDS011;43656;57.746;11.780;2022-08-25T03:04:09;5.55;;;2.30;;
57826;SDS011;43656;57.746;11.780;2022-08-25T03:06:35;3.92;;;1.80;;
57826;SDS011;43656;57.746;11.780;2022-08-25T03:09:01;2.22;;;1.83;;
57826;SDS011;43656;57.746;11.780;2022-08-25T03:11:28;6.25;;;2.25;;
57826;SDS011;43656;57.746;11.780;2022-08-25T03:13:54;4.47;;;2.22;;
57826;SDS011;43656;57.746;11.780;2022-08-25T03:16:20;5.63;;;1.90;;
57826;SDS011;43656;57.746;11.780;2022-08-25T03:18:47;4.78;;;2.28;;
57826;SDS011;43656;57.746;11.780;2022-08-25T03:21:14;2.88;;;2.15;;
57826;SDS011;43656;57.746;11.780;2022-08-25T03:28:50;4.60;;;2.03;;
57826;SDS011;43656;57.746;11.780;2022-08-25T03:36:26;3.03;;;1.85;;
57826;SDS011;43656;57.746;11.780;2022-08-25T03:44:03;3.92;;;1.80;;
57826;SDS011;43656;57.746;11.780;2022-08-25T03:46:32;6.00;;;2.30;;
57826;SDS011;43656;57.746;11.780;2022-08-25T03:49:03;4.63;;;1.80;;
57826;SDS011;43656;57.746;11.780;2022-08-25T03:51:35;4.18;;;2.10;;
57826;SDS011;43656;57.746;11.780;2022-08-25T04:07:00;3.13;;;2.00;;
57826;SDS011;43656;57.746;11.780;2022-08-25T04:09:26;5.93;;;2.30;;
57826;SDS011;43656;57.746;11.780;2022-08-25T04:17:02;4.30;;;2.10;;
57826;SDS011;43656;57.746;11.780;2022-08-25T04:19:28;4.63;;;2.20;;
57826;SDS011;43656;57.746;11.780;2022-08-25T04:21:54;3.70;;;2.00;;
57826;SDS011;43656;57.746;11.780;2022-08-25T04:24:19;4.00;;;2.30;;
57826;SDS011;43656;57.746;11.780;2022-08-25T04:26:47;6.05;;;2.03;;
57826;SDS011;43656;57.746;11.780;2022-08-25T04:44:45;3.85;;;1.92;;
57826;SDS011;43656;57.746;11.780;2022-08-25T04:47:14;3.90;;;2.00;;
57826;SDS011;43656;57.746;11.780;2022-08-25T04:49:40;3.28;;;2.00;;
57826;SDS011;43656;57.746;11.780;2022-08-25T04:52:06;4.82;;;2.10;;
57826;SDS011;43656;57.746;11.780;2022-08-25T04:54:31;4.68;;;1.88;;
57826;SDS011;43656;57.746;11.780;2022-08-25T04:56:57;4.05;;;1.98;;
57826;SDS011;43656;57.746;11.780;2022-08-25T04:59:24;5.88;;;1.70;;
57826;SDS011;43656;57.746;11.780;2022-08-25T05:01:50;3.85;;;1.60;;
57826;SDS011;43656;57.746;11.780;2022-08-25T05:04:18;3.85;;;1.63;;
57826;SDS011;43656;57.746;11.780;2022-08-25T05:06:46;5.20;;;1.98;;
57826;SDS011;43656;57.746;11.780;2022-08-25T05:14:22;2.55;;;1.70;;
57826;SDS011;43656;57.746;11.780;2022-08-25T05:16:48;5.30;;;1.67;;
57826;SDS011;43656;57.746;11.780;2022-08-25T05:19:17;6.40;;;1.73;;
57826;SDS011;43656;57.746;11.780;2022-08-25T05:21:43;7.38;;;1.70;;
57826;SDS011;43656;57.746;11.780;2022-08-25T05:26:44;2.38;;;1.60;;
57826;SDS011;43656;57.746;11.780;2022-08-25T05:29:10;4.13;;;1.80;;
57826;SDS011;43656;57.746;11.780;2022-08-25T05:31:35;5.20;;;1.67;;
57826;SDS011;43656;57.746;11.780;2022-08-25T05:34:08;2.15;;;1.52;;
57826;SDS011;43656;57.746;11.780;2022-08-25T05:36:33;2.63;;;1.50;;
57826;SDS011;43656;57.746;11.780;2022-08-25T05:39:00;5.47;;;1.60;;
57826;SDS011;43656;57.746;11.780;2022-08-25T05:41:27;7.63;;;1.65;;
57826;SDS011;43656;57.746;11.780;2022-08-25T05:43:54;6.18;;;1.80;;
57826;SDS011;43656;57.746;11.780;2022-08-25T05:46:21;6.35;;;1.80;;
57826;SDS011;43656;57.746;11.780;2022-08-25T05:48:47;7.15;;;1.75;;
57826;SDS011;43656;57.746;11.780;2022-08-25T05:51:14;7.18;;;2.28;;
57826;SDS011;43656;57.746;11.780;2022-08-25T05:53:41;4.88;;;1.80;;
57826;SDS011;43656;57.746;11.780;2022-08-25T05:56:09;8.77;;;2.00;;
57826;SDS011;43656;57.746;11.780;2022-08-25T06:06:21;12.23;;;2.20;;
57826;SDS011;43656;57.746;11.780;2022-08-25T06:08:48;9.07;;;1.63;;
57826;SDS011;43656;57.746;11.780;2022-08-25T06:11:14;7.95;;;2.00;;
57826;SDS011;43656;57.746;11.780;2022-08-25T06:13:41;10.82;;;2.30;;
57826;SDS011;43656;57.746;11.780;2022-08-25T06:16:06;11.68;;;2.10;;
57826;SDS011;43656;57.746;11.780;2022-08-25T06:18:32;7.90;;;1.98;;
57826;SDS011;43656;57.746;11.780;2022-08-25T06:20:57;5.00;;;1.90;;
57826;SDS011;43656;57.746;11.780;2022-08-25T06:23:23;6.78;;;1.88;;
57826;SDS011;43656;57.746;11.780;2022-08-25T06:25:49;5.47;;;2.10;;
57826;SDS011;43656;57.746;11.780;2022-08-25T06:28:15;11.90;;;2.08;;
57826;SDS011;43656;57.746;11.780;2022-08-25T06:30:41;14.63;;;2.30;;
57826;SDS011;43656;57.746;11.780;2022-08-25T06:33:06;12.70;;;2.20;;
57826;SDS011;43656;57.746;11.780;2022-08-25T06:35:31;10.77;;;2.20;;
57826;SDS011;43656;57.746;11.780;2022-08-25T06:37:57;8.00;;;2.28;;
57826;SDS011;43656;57.746;11.780;2022-08-25T06:40:22;10.02;;;2.60;;
57826;SDS011;43656;57.746;11.780;2022-08-25T06:42:49;10.23;;;2.38;;
57826;SDS011;43656;57.746;11.780;2022-08-25T06:45:15;12.13;;;2.72;;
57826;SDS011;43656;57.746;11.780;2022-08-25T06:47:40;12.50;;;2.40;;
57826;SDS011;43656;57.746;11.780;2022-08-25T06:50:08;13.05;;;2.67;;
57826;SDS011;43656;57.746;11.780;2022-08-25T06:52:34;17.73;;;3.10;;
57826;SDS011;43656;57.746;11.780;2022-08-25T06:55:00;12.75;;;2.80;;
57826;SDS011;43656;57.746;11.780;2022-08-25T06:57:26;11.75;;;2.55;;
57826;SDS011;43656;57.746;11.780;2022-08-25T07:32:46;5.28;;;2.25;;
57826;SDS011;43656;57.746;11.780;2022-08-25T10:19:27;5.03;;;1.20;;
57826;SDS011;43656;57.746;11.780;2022-08-25T10:53:23;3.15;;;1.20;;
57826;SDS011;43656;57.746;11.780;2022-08-25T11:08:56;2.90;;;1.23;;
57826;SDS011;43656;57.746;11.780;2022-08-25T11:11:27;5.72;;;1.58;;
57826;SDS011;43656;57.746;11.780;2022-08-25T11:34:34;2.92;;;1.20;;
57826;SDS011;43656;57.746;11.780;2022-08-25T12:00:55;3.47;;;1.42;;
57826;SDS011;43656;57.746;11.780;2022-08-25T12:11:49;4.78;;;1.58;;
57826;SDS011;43656;57.746;11.780;2022-08-25T12:21:50;4.30;;;1.35;;
57826;SDS011;43656;57.746;11.780;2022-08-25T12:30:49;4.80;;;1.20;;
57826;SDS011;43656;57.746;11.780;2022-08-25T12:32:56;2.25;;;1.10;;
57826;SDS011;43656;57.746;11.780;2022-08-25T12:35:51;3.75;;;1.20;;
57826;SDS011;43656;57.746;11.780;2022-08-25T12:41:32;2.83;;;1.30;;
57826;SDS011;43656;57.746;11.780;2022-08-25T12:46:42;3.13;;;1.30;;
57826;SDS011;43656;57.746;11.780;2022-08-25T13:25:28;2.58;;;1.20;;
57826;SDS011;43656;57.746;11.780;2022-08-25T13:27:58;2.33;;;1.30;;
57826;SDS011;43656;57.746;11.780;2022-08-25T13:32:56;3.45;;;1.10;;
57826;SDS011;43656;57.746;11.780;2022-08-25T13:35:23;2.53;;;1.20;;
57826;SDS011;43656;57.746;11.780;2022-08-25T13:37:51;2.95;;;1.17;;
57826;SDS011;43656;57.746;11.780;2022-08-25T13:53:13;4.18;;;1.50;;
57826;SDS011;43656;57.746;11.780;2022-08-25T13:58:34;4.17;;;1.37;;
57826;SDS011;43656;57.746;11.780;2022-08-25T14:17:37;3.00;;;1.20;;
57826;SDS011;43656;57.746;11.780;2022-08-25T14:25:15;2.45;;;1.15;;
57826;SDS011;43656;57.746;11.780;2022-08-25T14:27:42;2.25;;;1.00;;
57826;SDS011;43656;57.746;11.780;2022-08-25T14:30:09;2.47;;;1.23;;
57826;SDS011;43656;57.746;11.780;2022-08-25T14:42:56;2.30;;;0.95;;
57826;SDS011;43656;57.746;11.780;2022-08-25T14:45:21;3.63;;;1.08;;
57826;SDS011;43656;57.746;11.780;2022-08-25T14:47:47;3.38;;;1.10;;
57826;SDS011;43656;57.746;11.780;2022-08-25T14:50:13;1.65;;;0.85;;
57826;SDS011;43656;57.746;11.780;2022-08-25T14:52:40;6.30;;;1.13;;
57826;SDS011;43656;57.746;11.780;2022-08-25T15:05:27;3.05;;;1.50;;
57826;SDS011;43656;57.746;11.780;2022-08-25T15:07:53;2.85;;;1.30;;
57826;SDS011;43656;57.746;11.780;2022-08-25T15:10:39;3.70;;;1.52;;
57826;SDS011;43656;57.746;11.780;2022-08-25T15:18:15;3.33;;;1.20;;
57826;SDS011;43656;57.746;11.780;2022-08-25T15:20:41;4.15;;;1.30;;
57826;SDS011;43656;57.746;11.780;2022-08-25T15:28:17;2.78;;;1.15;;
57826;SDS011;43656;57.746;11.780;2022-08-25T15:48:42;3.58;;;1.17;;
57826;SDS011;43656;57.746;11.780;2022-08-25T15:56:18;5.00;;;1.38;;
57826;SDS011;43656;57.746;11.780;2022-08-25T15:58:45;2.15;;;1.33;;
57826;SDS011;43656;57.746;11.780;2022-08-25T16:01:13;3.30;;;1.17;;
57826;SDS011;43656;57.746;11.780;2022-08-25T16:03:40;2.13;;;1.38;;
57826;SDS011;43656;57.746;11.780;2022-08-25T16:06:06;3.25;;;1.60;;
57826;SDS011;43656;57.746;11.780;2022-08-25T16:08:32;2.75;;;1.40;;
57826;SDS011;43656;57.746;11.780;2022-08-25T16:13:33;2.90;;;1.40;;
57826;SDS011;43656;57.746;11.780;2022-08-25T17:05:06;2.30;;;1.55;;
57826;SDS011;43656;57.746;11.780;2022-08-25T19:28:02;5.43;;;2.08;;
57826;SDS011;43656;57.746;11.780;2022-08-25T20:09:19;4.03;;;1.95;;
57826;SDS011;43656;57.746;11.780;2022-08-25T20:22:06;3.22;;;1.90;;
57826;SDS011;43656;57.746;11.780;2022-08-25T20:24:32;5.45;;;2.47;;
57826;SDS011;43656;57.746;11.780;2022-08-25T20:29:49;3.70;;;2.30;;
57826;SDS011;43656;57.746;11.780;2022-08-25T20:40:01;5.30;;;2.40;;
57826;SDS011;43656;57.746;11.780;2022-08-25T20:42:28;3.33;;;2.20;;
57826;SDS011;43656;57.746;11.780;2022-08-25T21:59:54;2.97;;;1.40;;
57826;SDS011;43656;57.746;11.780;2022-08-25T22:02:20;3.10;;;1.40;;
